Latest Weather Observations for Mount Gellibrand

IDV60801

Issued at 11:31 am EST Saturday 25 April 2015 (issued every 30 minutes, with the page automatically refreshed every 10 minutes)

About weather observations | Map of weather stations | Latest weather observations for VIC | Other Formats
Station Details ID: 090035 Name: MOUNT GELLIBRAND Lat: -38.23 Lon: 143.79 Height: 261.0 m
Data from the previous 72 hours. | See also: Recent months at Mount Gellibrand
Date/Time
EST
Temp
°C
App
Temp
°C
Dew
Point
Rel
Hum
%
Delta-T
°C
Wind Press
QNH
hPa
Press
MSL
hPa
Rain
since 9 am
mm
Dir
 
Spd
km/h
Gust
km/h
Spd
kts
Gust
kts
25/11:30am 11.3 8.3 10.8 97 0.3 SW 17 19 9 10 1009.0 1008.6 2.8
25/11:00am 11.0 8.7 10.5 97 0.3 SW 13 15 7 8 1009.4 1009.1 1.4
25/10:30am 10.5 8.1 9.9 96 0.3 SW 13 15 7 8 1009.3 1009.0 1.2
25/10:00am 10.7 7.9 10.1 96 0.3 SW 15 19 8 10 1009.0 1008.6 0.4
25/09:30am 10.1 7.2 9.5 96 0.3 SW 15 17 8 9 1009.0 1008.6 0.0
25/09:00am 9.7 7.8 9.1 96 0.3 WSW 9 13 5 7 1008.7 1008.3 2.6
25/08:30am 9.6 6.2 9.0 96 0.3 SW 17 20 9 11 1008.2 1007.8 2.6
25/08:00am 9.1 5.2 8.5 96 0.3 SW 19 20 10 11 1007.6 1007.3 2.6
25/07:30am 9.1 5.5 8.5 96 0.3 WSW 17 20 9 11 1007.4 1007.1 2.6
25/07:00am 9.2 6.7 8.4 95 0.4 SW 11 13 6 7 1007.5 1007.2 2.6
25/06:30am 9.3 6.1 8.5 95 0.4 SW 15 17 8 9 1007.3 1007.0 2.6
25/06:00am 9.1 5.9 8.5 96 0.3 WSW 15 17 8 9 1006.9 1006.6 2.6
25/05:30am 9.2 5.3 8.6 96 0.3 WSW 19 20 10 11 1006.6 1006.3 2.6
25/05:00am 9.1 5.5 8.5 96 0.3 WSW 17 20 9 11 1006.2 1005.9 2.6
25/04:30am 9.1 5.9 8.5 96 0.3 W 15 17 8 9 1006.2 1005.9 2.6
25/04:00am 9.0 5.0 8.4 96 0.3 W 19 20 10 11 1006.3 1006.0 2.6
25/03:30am 9.1 5.5 8.5 96 0.3 WNW 17 20 9 11 1006.4 1006.1 2.6
25/03:00am 9.2 6.0 8.6 96 0.3 W 15 19 8 10 1006.2 1005.9 2.6
25/02:30am 9.2 6.0 8.6 96 0.3 W 15 20 8 11 1006.1 1005.8 2.6
25/02:00am 9.2 5.3 8.6 96 0.3 W 19 22 10 12 1006.1 1005.8 2.6
25/01:30am 9.4 5.9 8.8 96 0.3 W 17 20 9 11 1006.4 1006.1 2.6
25/01:00am 9.5 5.5 8.9 96 0.3 W 20 22 11 12 1006.2 1005.9 2.6
25/12:30am 9.5 6.0 8.9 96 0.3 WNW 17 22 9 12 1006.2 1005.9 2.6
25/12:00am 9.7 5.9 9.1 96 0.3 WNW 19 22 10 12 1006.1 1005.8 2.6
 
Date/Time
EST
Temp
°C
App
Temp
°C
Dew
Point
Rel
Hum
%
Delta-T
°C
Wind Press
QNH
hPa
Press
MSL
hPa
Rain
since 9 am
mm
Dir
 
Spd
km/h
Gust
km/h
Spd
kts
Gust
kts
24/11:30pm 10.4 7.6 9.9 97 0.3 WNW 15 19 8 10 1006.2 1005.9 2.6
24/11:00pm 10.5 8.1 9.9 96 0.3 W 13 17 7 9 1006.1 1005.8 2.6
24/10:30pm 10.6 9.5 10.0 96 0.3 WNW 6 7 3 4 1006.1 1005.8 2.6
24/10:00pm 10.6 8.6 10.0 96 0.3 WSW 11 15 6 8 1005.8 1005.4 2.6
24/09:30pm 10.8 7.7 10.2 96 0.3 W 17 24 9 13 1005.8 1005.4 2.6
24/09:00pm 10.8 7.1 10.2 96 0.3 W 20 28 11 15 1005.6 1005.2 2.4
24/08:30pm 10.9 6.9 10.3 96 0.3 WSW 22 26 12 14 1005.5 1005.1 2.4
24/08:00pm 11.1 6.3 10.3 95 0.4 W 26 35 14 19 1005.4 1005.0 1.4
24/07:30pm 11.8 3.2 10.2 90 0.8 W 46 59 25 32 1005.0 1004.6 0.0
24/07:21pm 13.6 10.3 9.6 77 2.1 W 17 59 9 32 1004.7 1004.3 0.0
24/07:00pm 15.0 14.0 8.9 67 3.2 W 4 6 2 3 1004.7 1004.3 0.0
24/06:30pm 15.1 13.8 9.2 68 3.1 W 6 7 3 4 1004.4 1004.0 0.0
24/06:00pm 15.0 13.6 9.4 69 2.9 W 7 7 4 4 1004.1 1003.7 0.0
24/05:30pm 14.5 11.9 9.3 71 2.7 W 13 17 7 9 1003.9 1003.5 0.0
24/05:00pm 16.3 13.7 9.5 64 3.6 WNW 13 19 7 10 1003.4 1003.1 0.0
24/04:30pm 15.8 12.6 9.9 68 3.1 WNW 17 20 9 11 1003.3 1003.0 0.0
24/04:00pm 16.0 13.0 10.5 70 3.0 WNW 17 22 9 12 1003.3 1003.0 0.0
24/03:30pm 15.9 12.4 10.9 72 2.7 WNW 20 28 11 15 1003.2 1002.9 0.0
24/03:00pm 15.6 12.7 11.0 74 2.5 WNW 17 20 9 11 1003.1 1002.8 0.0
24/02:30pm 15.6 12.4 11.2 75 2.4 WNW 19 24 10 13 1003.2 1002.9 0.0
24/02:00pm 15.0 11.7 11.0 77 2.2 WNW 19 24 10 13 1003.4 1003.1 0.0
24/01:30pm 15.9 12.7 11.1 73 2.6 NW 19 24 10 13 1003.5 1003.2 0.0
24/01:00pm 15.2 12.0 11.4 78 2.1 WNW 19 24 10 13 1003.7 1003.4 0.0
24/12:30pm 14.4 11.8 13.1 92 0.7 W 19 22 10 12 1004.2 1003.8 0.0
24/12:00pm 13.6 11.3 13.0 96 0.3 WNW 17 20 9 11 1004.6 1004.2 0.0
24/11:30am 12.9 10.4 12.4 97 0.3 WNW 17 20 9 11 1005.0 1004.6 0.0
24/11:00am 12.7 9.8 12.2 97 0.3 WNW 19 22 10 12 1005.0 1004.6 0.0
24/10:30am 12.9 10.0 12.4 97 0.3 WNW 19 22 10 12 1004.9 1004.5 0.0
24/10:00am 12.8 10.3 12.3 97 0.3 WNW 17 20 9 11 1005.1 1004.7 0.0
24/09:30am 12.9 10.1 12.6 98 0.2 W 19 22 10 12 1005.2 1004.8 0.0
24/09:00am 12.4 9.2 11.9 97 0.3 W 20 24 11 13 1005.4 1005.0 0.4
24/08:30am 12.3 9.3 11.8 97 0.3 W 19 24 10 13 1005.3 1004.9 0.4
24/08:00am 12.3 9.3 11.8 97 0.3 W 19 20 10 11 1005.5 1005.1 0.2
24/07:30am 12.3 9.3 11.8 97 0.3 W 19 22 10 12 1005.3 1004.9 0.2
24/07:00am 12.2 9.1 11.7 97 0.3 W 19 20 10 11 1005.3 1004.9 0.2
24/06:30am 12.2 9.9 11.7 97 0.3 W 15 17 8 9 1005.2 1004.8 0.2
24/06:00am 12.2 10.3 11.7 97 0.3 W 13 15 7 8 1005.4 1005.0 0.0
24/05:30am 12.2 10.3 11.7 97 0.3 W 13 15 7 8 1005.3 1004.9 0.0
24/05:00am 12.3 10.8 11.8 97 0.3 WSW 11 13 6 7 1005.3 1004.9 0.0
24/04:30am 12.3 11.2 11.8 97 0.3 W 9 13 5 7 1005.6 1005.2 0.0
24/04:00am 12.3 11.1 11.7 96 0.3 WSW 9 11 5 6 1005.7 1005.3 0.0
24/03:30am 12.4 10.9 11.8 96 0.3 WSW 11 13 6 7 1005.9 1005.6 0.0
24/03:00am 12.6 11.9 12.0 96 0.3 WSW 7 9 4 5 1006.5 1006.2 0.0
24/02:30am 12.8 11.8 12.2 96 0.3 W 9 11 5 6 1007.2 1006.9 0.0
24/02:00am 13.0 12.4 12.4 96 0.3 W 7 9 4 5 1007.6 1007.3 0.0
24/01:30am 13.2 14.0 12.4 95 0.4 CALM 0 0 0 0 1007.7 1007.4 0.0
24/01:00am 13.6 14.5 12.8 95 0.4 CALM 0 2 0 1 1008.2 1007.8 0.0
24/12:30am 13.6 13.7 12.8 95 0.4 E 4 6 2 3 1008.7 1008.3 0.0
24/12:00am 13.6 13.1 12.8 95 0.4 ESE 7 9 4 5 1009.0 1008.6 0.0
 
Date/Time
EST
Temp
°C
App
Temp
°C
Dew
Point
Rel
Hum
%
Delta-T
°C
Wind Press
QNH
hPa
Press
MSL
hPa
Rain
since 9 am
mm
Dir
 
Spd
km/h
Gust
km/h
Spd
kts
Gust
kts
23/11:30pm 13.6 12.8 12.8 95 0.4 ESE 9 11 5 6 1009.5 1009.2 0.0
23/11:00pm 13.6 12.0 12.8 95 0.4 SE 13 17 7 9 1009.9 1009.6 0.0
23/10:30pm 13.5 11.8 12.6 94 0.5 ESE 13 15 7 8 1010.3 1010.0 0.0
23/10:00pm 13.4 11.0 12.5 94 0.5 ESE 17 20 9 11 1010.6 1010.3 0.0
23/09:30pm 13.4 11.3 12.3 93 0.6 ESE 15 17 8 9 1011.0 1010.7 0.0
23/09:00pm 13.4 10.5 12.3 93 0.6 ESE 19 24 10 13 1011.2 1010.9 0.0
23/08:30pm 13.3 10.3 12.0 92 0.7 ESE 19 20 10 11 1011.4 1011.1 0.0
23/08:00pm 13.3 10.3 12.0 92 0.7 SE 19 20 10 11 1011.9 1011.5 0.0
23/07:30pm 13.3 9.8 12.2 93 0.6 SE 22 28 12 15 1012.1 1011.7 0.0
23/07:00pm 13.3 10.3 12.4 94 0.5 SE 20 22 11 12 1012.6 1012.3 0.0
23/06:30pm 13.0 10.5 12.2 95 0.4 SE 17 20 9 11 1012.9 1012.6 0.0
23/06:00pm 13.0 10.1 12.2 95 0.4 SE 19 22 10 12 1012.9 1012.6 0.0
23/05:30pm 13.0 10.5 12.2 95 0.4 SSE 17 22 9 12 1013.0 1012.7 0.0
23/05:00pm 13.2 10.1 12.3 94 0.5 SSE 20 24 11 13 1012.9 1012.6 0.0
23/04:30pm 13.3 9.7 12.0 92 0.7 SE 22 28 12 15 1013.2 1012.9 0.0
23/04:00pm 14.4 10.0 11.6 83 1.5 SE 26 33 14 18 1013.5 1013.2 0.0
23/03:30pm 14.4 10.3 11.6 83 1.5 ESE 24 30 13 16 1014.0 1013.7 0.0
23/03:00pm 15.1 10.6 11.3 78 2.1 ESE 26 32 14 17 1014.2 1013.9 0.0
23/02:30pm 15.6 11.1 11.4 76 2.3 ESE 26 32 14 17 1014.6 1014.3 0.0
23/02:00pm 15.7 10.4 11.3 75 2.4 ESE 30 35 16 19 1014.7 1014.4 0.0
23/01:30pm 14.8 9.3 12.3 85 1.4 SE 33 44 18 24 1015.1 1014.8 0.0
23/01:00pm 14.1 8.1 12.0 87 1.1 SE 35 43 19 23 1015.4 1015.1 0.0
23/12:30pm 14.3 8.4 12.3 88 1.1 ESE 35 44 19 24 1016.1 1015.8 0.0
23/12:00pm 14.9 9.4 11.9 82 1.6 ESE 32 37 17 20 1016.9 1016.6 0.0
23/11:30am 14.7 7.9 12.0 84 1.5 SE 39 43 21 23 1017.4 1017.1 0.0
23/11:00am 15.3 8.9 10.7 74 2.5 SE 35 44 19 24 1017.9 1017.6 0.0
23/10:30am 15.9 9.9 10.9 72 2.7 ESE 33 44 18 24 1018.1 1017.8 0.0
23/10:00am 15.5 10.0 11.9 79 2.0 ESE 32 43 17 23 1018.5 1018.2 0.0
23/09:30am 13.9 9.1 13.0 94 0.5 ESE 30 37 16 20 1019.0 1018.8 0.0
23/09:00am 13.6 8.5 13.0 96 0.3 SE 32 39 17 21 1019.3 1019.1 0.2
23/08:30am 12.9 9.1 12.3 96 0.3 ESE 24 32 13 17 1019.5 1019.3 0.2
23/08:00am 12.4 9.2 11.8 96 0.3 ESE 20 24 11 13 1019.6 1019.4 0.2
23/07:30am 12.1 8.0 11.5 96 0.3 SE 24 30 13 16 1019.6 1019.4 0.2
23/07:00am 12.4 8.7 11.6 95 0.4 ESE 22 30 12 16 1019.3 1019.1 0.2
23/06:30am 12.5 9.2 11.6 94 0.5 ESE 20 26 11 14 1019.5 1019.3 0.0
23/06:00am 12.8 10.1 11.7 93 0.6 ESE 17 22 9 12 1019.7 1019.5 0.0
23/05:30am 12.9 8.5 11.6 92 0.7 SE 26 32 14 17 1019.6 1019.4 0.0
23/05:00am 12.6 8.8 11.2 91 0.7 ESE 22 30 12 16 1019.7 1019.5 0.0
23/04:30am 13.0 8.9 11.6 91 0.8 ESE 24 30 13 16 1019.4 1019.2 0.0
23/04:00am 13.2 8.7 11.4 89 1.0 ESE 26 33 14 18 1019.6 1019.4 0.0
23/03:30am 13.0 9.3 11.6 91 0.8 ESE 22 32 12 17 1019.9 1019.6 0.0
23/03:00am 12.9 8.8 11.5 91 0.7 ESE 24 28 13 15 1020.1 1019.8 0.0
23/02:30am 12.7 9.3 11.3 91 0.7 ESE 20 24 11 13 1020.6 1020.3 0.0
23/02:00am 13.0 8.9 11.6 91 0.8 SE 24 30 13 16 1020.9 1020.6 0.0
23/01:30am 13.0 9.7 11.7 92 0.7 SE 20 24 11 13 1021.1 1020.8 0.0
23/01:00am 13.1 9.9 11.8 92 0.7 SE 20 26 11 14 1021.2 1020.9 0.0
23/12:30am 13.1 9.2 12.0 93 0.6 SE 24 30 13 16 1021.4 1021.1 0.0
23/12:00am 12.8 9.2 11.7 93 0.6 SE 22 26 12 14 1021.8 1021.5 0.0
 
Date/Time
EST
Temp
°C
App
Temp
°C
Dew
Point
Rel
Hum
%
Delta-T
°C
Wind Press
QNH
hPa
Press
MSL
hPa
Rain
since 9 am
mm
Dir
 
Spd
km/h
Gust
km/h
Spd
kts
Gust
kts
22/11:30pm 12.7 9.0 11.4 92 0.7 SSE 22 28 12 15 1022.1 1021.8 0.0
22/11:00pm 12.7 9.0 11.6 93 0.6 SE 22 28 12 15 1022.6 1022.4 0.0
22/10:30pm 12.6 9.3 11.5 93 0.6 SE 20 24 11 13 1022.9 1022.7 0.0
22/10:00pm 12.7 9.3 11.4 92 0.7 SE 20 26 11 14 1023.0 1022.8 0.0
22/09:30pm 12.7 9.3 11.4 92 0.7 SE 20 24 11 13 1023.2 1023.0 0.0
22/09:00pm 12.4 9.6 11.3 93 0.6 SE 17 20 9 11 1023.5 1023.3 0.0
22/08:30pm 12.2 7.6 11.1 93 0.6 SE 26 33 14 18 1023.2 1023.0 0.0
22/08:00pm 12.1 7.5 11.2 94 0.5 SE 26 32 14 17 1023.1 1022.9 0.0
22/07:30pm 12.2 8.4 11.3 94 0.5 SSE 22 26 12 14 1023.4 1023.2 0.0
22/07:00pm 12.2 8.8 11.4 95 0.4 SSE 20 24 11 13 1023.7 1023.5 0.0
22/06:30pm 12.2 9.4 11.3 94 0.5 S 17 20 9 11 1023.9 1023.6 0.0
22/06:00pm 12.4 10.0 11.3 93 0.6 S 15 19 8 10 1023.7 1023.5 0.0
22/05:30pm 12.7 9.0 11.6 93 0.6 S 22 26 12 14 1023.5 1023.3 0.0
22/05:00pm 12.5 9.1 11.4 93 0.6 SSE 20 24 11 13 1023.4 1023.2 0.0
22/04:30pm 12.9 9.4 11.0 88 1.0 SSE 20 28 11 15 1023.6 1023.4 0.0
22/04:00pm 13.9 10.0 10.7 81 1.7 SSE 22 28 12 15 1023.9 1023.6 0.0
22/03:30pm 14.4 9.6 10.2 76 2.2 SE 26 33 14 18 1023.9 1023.6 0.0
22/03:00pm 14.8 9.6 10.2 74 2.4 SE 28 33 15 18 1024.1 1023.8 0.0
22/02:30pm 14.7 9.2 10.5 76 2.2 SE 30 37 16 20 1024.2 1023.9 0.0
22/02:00pm 15.0 10.2 10.2 73 2.5 SE 26 35 14 19 1024.5 1024.2 0.0
22/01:30pm 15.3 9.6 9.9 70 2.9 SE 30 37 16 20 1024.9 1024.6 0.0
22/01:00pm 15.8 10.1 9.9 68 3.1 SE 30 39 16 21 1025.0 1024.7 0.0
22/12:30pm 16.0 11.0 9.4 65 3.5 SE 26 37 14 20 1025.4 1025.1 0.0
22/12:00pm 15.6 11.0 9.7 68 3.1 ESE 24 32 13 17 1025.9 1025.7 0.0

Other Formats:

Comma delimited format used in spreadsheet applications
http://www.bom.gov.au/fwo/IDV60801/IDV60801.95845.axf

JavaScript Object Notation format (JSON) in row-major order
http://www.bom.gov.au/fwo/IDV60801/IDV60801.95845.json